Time;durP1;ratioP1;P1;durP2;ratioP2;P2;SDS_P1;SDS_P2;PMS_P1;PMS_P2;Temp;Humidity;BMP_temperature;BMP_pressure;BME280_temperature;BME280_humidity;BME280_pressure;Samples;Min_cycle;Max_cycle;Signal;HPM_P1;HPM_P2
2022/06/24 00:01:53;;;;;;;5.38;1.92;;;;;;;;;;5091744;28;20485;-60
2022/06/24 00:04:39;;;;;;;6.93;1.60;;;;;;;;;;5089065;28;20062;-68
2022/06/24 00:07:24;;;;;;;5.63;2.00;;;;;;;;;;5092520;28;20043;-68
2022/06/24 00:10:11;;;;;;;5.70;1.75;;;;;;;;;;5092858;28;20094;-69
2022/06/24 00:12:56;;;;;;;4.35;1.60;;;;;;;;;;5093426;28;20029;-70
2022/06/24 00:15:42;;;;;;;5.05;2.30;;;;;;;;;;5093591;28;20398;-69
2022/06/24 00:18:27;;;;;;;7.05;1.90;;;;;;;;;;5091232;28;20039;-66
2022/06/24 00:21:13;;;;;;;4.95;1.73;;;;;;;;;;5087612;28;20033;-62
2022/06/24 00:23:59;;;;;;;4.93;1.52;;;;;;;;;;5094695;27;20109;-62
2022/06/24 00:26:44;;;;;;;5.78;1.73;;;;;;;;;;5093617;28;20020;-64
2022/06/24 00:29:32;;;;;;;6.28;1.92;;;;;;;;;;5093480;28;20375;-63
2022/06/24 00:32:33;;;;;;;4.13;1.80;;;;;;;;;;5092347;28;20065;-63
2022/06/24 00:35:18;;;;;;;10.30;2.53;;;;;;;;;;5093939;28;20524;-63
2022/06/24 00:38:19;;;;;;;5.97;1.65;;;;;;;;;;5092434;28;20090;-66
2022/06/24 00:41:06;;;;;;;7.07;1.88;;;;;;;;;;5092384;28;20032;-66
2022/06/24 00:43:58;;;;;;;7.70;2.00;;;;;;;;;;5093193;28;20023;-60
2022/06/24 00:46:44;;;;;;;5.20;1.85;;;;;;;;;;5089630;28;20028;-60
2022/06/24 00:49:29;;;;;;;5.28;1.70;;;;;;;;;;5077213;28;20023;-62
2022/06/24 00:52:15;;;;;;;3.05;1.58;;;;;;;;;;5091232;28;20020;-62
2022/06/24 00:55:00;;;;;;;6.97;2.38;;;;;;;;;;5089574;28;20058;-66
2022/06/24 00:57:46;;;;;;;5.55;1.98;;;;;;;;;;5091889;28;20043;-66
2022/06/24 01:00:33;;;;;;;8.50;2.10;;;;;;;;;;5089751;28;20031;-64
2022/06/24 01:03:18;;;;;;;9.85;2.10;;;;;;;;;;5090246;28;20077;-66
2022/06/24 01:06:04;;;;;;;6.25;2.70;;;;;;;;;;5088228;28;20093;-65
2022/06/24 01:08:50;;;;;;;5.90;1.73;;;;;;;;;;5074697;28;20352;-68
2022/06/24 01:11:36;;;;;;;5.65;2.40;;;;;;;;;;5092660;28;20489;-65
2022/06/24 01:14:22;;;;;;;6.63;2.20;;;;;;;;;;5092988;28;20066;-70
2022/06/24 01:17:08;;;;;;;5.22;1.75;;;;;;;;;;5091610;28;20024;-70
2022/06/24 01:19:53;;;;;;;7.38;2.00;;;;;;;;;;5089662;28;20501;-68
2022/06/24 01:22:39;;;;;;;5.93;1.90;;;;;;;;;;5093441;28;20059;-69
2022/06/24 01:25:24;;;;;;;4.75;1.85;;;;;;;;;;5091178;28;20024;-69
2022/06/24 01:28:10;;;;;;;5.47;1.80;;;;;;;;;;5089571;28;20028;-68
2022/06/24 01:30:56;;;;;;;7.68;2.40;;;;;;;;;;5090909;28;20458;-69
2022/06/24 01:33:41;;;;;;;8.77;2.55;;;;;;;;;;5090239;28;20458;-61
2022/06/24 01:36:27;;;;;;;6.70;2.10;;;;;;;;;;5076598;28;20028;-62
2022/06/24 01:39:13;;;;;;;7.43;2.00;;;;;;;;;;5083658;28;20127;-61
2022/06/24 01:41:58;;;;;;;9.13;3.03;;;;;;;;;;5085918;28;20028;-62
2022/06/24 01:44:44;;;;;;;4.88;2.35;;;;;;;;;;5086871;28;20043;-61
2022/06/24 01:47:30;;;;;;;8.13;2.30;;;;;;;;;;5090265;28;20027;-62
2022/06/24 01:50:15;;;;;;;7.50;2.55;;;;;;;;;;5087918;28;20099;-69
2022/06/24 01:53:01;;;;;;;7.47;2.25;;;;;;;;;;5090408;28;20085;-59
2022/06/24 01:55:46;;;;;;;6.97;2.58;;;;;;;;;;5088760;28;20356;-61
2022/06/24 01:58:32;;;;;;;6.57;2.13;;;;;;;;;;5089007;28;20067;-60
2022/06/24 02:01:18;;;;;;;6.32;2.55;;;;;;;;;;5071204;28;20028;-61
2022/06/24 02:04:03;;;;;;;5.63;2.10;;;;;;;;;;5091626;28;20382;-60
2022/06/24 02:06:49;;;;;;;4.75;2.13;;;;;;;;;;5073697;28;20478;-60
2022/06/24 02:13:26;;;;;;;13.45;2.85;;;;;;;;;;5092023;28;20411;-69
2022/06/24 02:15:44;;;;;;;9.30;3.42;;;;;;;;;;5087746;28;20051;-62
2022/06/24 02:18:30;;;;;;;6.97;2.38;;;;;;;;;;5082860;28;20477;-64
2022/06/24 02:21:16;;;;;;;8.77;2.80;;;;;;;;;;5092756;28;20032;-64
2022/06/24 02:24:02;;;;;;;5.47;2.25;;;;;;;;;;5088702;28;20089;-63
2022/06/24 02:26:48;;;;;;;9.15;2.67;;;;;;;;;;5077176;28;20024;-68
2022/06/24 02:29:33;;;;;;;8.73;2.50;;;;;;;;;;5090977;28;20063;-67
2022/06/24 02:32:19;;;;;;;9.73;2.30;;;;;;;;;;5089220;28;20489;-65
2022/06/24 02:35:04;;;;;;;8.00;2.38;;;;;;;;;;5089352;28;20024;-64
2022/06/24 02:37:50;;;;;;;6.18;2.53;;;;;;;;;;5074915;28;20054;-64
2022/06/24 02:40:47;;;;;;;8.57;2.42;;;;;;;;;;5087689;28;20063;-67
2022/06/24 02:43:35;;;;;;;6.03;2.13;;;;;;;;;;5088704;28;20024;-66
2022/06/24 02:46:20;;;;;;;6.07;2.17;;;;;;;;;;5071051;28;20059;-66
2022/06/24 02:49:06;;;;;;;10.40;2.88;;;;;;;;;;5078942;28;20024;-66
2022/06/24 02:51:52;;;;;;;5.57;2.05;;;;;;;;;;5084732;28;20035;-67
2022/06/24 02:54:37;;;;;;;6.82;2.20;;;;;;;;;;5088355;28;20103;-66
2022/06/24 02:57:23;;;;;;;7.28;2.30;;;;;;;;;;5092451;28;20625;-66
2022/06/24 03:00:09;;;;;;;5.90;2.25;;;;;;;;;;5073773;28;20035;-66
2022/06/24 03:02:54;;;;;;;8.20;2.63;;;;;;;;;;5089116;28;20089;-67
2022/06/24 03:05:40;;;;;;;5.97;2.10;;;;;;;;;;5088288;28;20028;-63
2022/06/24 03:08:26;;;;;;;9.50;3.25;;;;;;;;;;5086960;28;20119;-62
2022/06/24 03:11:13;;;;;;;5.60;2.53;;;;;;;;;;5082523;28;20063;-61
2022/06/24 03:13:59;;;;;;;6.10;2.20;;;;;;;;;;5073834;28;20364;-61
2022/06/24 03:16:45;;;;;;;6.20;3.10;;;;;;;;;;5087277;28;20028;-61
2022/06/24 03:19:30;;;;;;;8.15;2.17;;;;;;;;;;5086561;28;20387;-61
2022/06/24 03:22:16;;;;;;;7.97;2.15;;;;;;;;;;5075668;28;20043;-67
2022/06/24 03:25:02;;;;;;;8.13;2.35;;;;;;;;;;5087168;28;20032;-62
2022/06/24 03:27:47;;;;;;;5.95;2.00;;;;;;;;;;5090151;28;20051;-61
2022/06/24 03:30:33;;;;;;;4.57;2.17;;;;;;;;;;5086905;28;20295;-61
2022/06/24 03:33:19;;;;;;;6.18;2.88;;;;;;;;;;5083796;28;20039;-61
2022/06/24 03:36:08;;;;;;;7.65;2.45;;;;;;;;;;5084720;28;20398;-63
2022/06/24 03:38:54;;;;;;;11.00;2.83;;;;;;;;;;5076490;28;20039;-62
2022/06/24 03:41:39;;;;;;;7.07;2.40;;;;;;;;;;5089750;28;20028;-63
2022/06/24 03:44:25;;;;;;;6.43;2.25;;;;;;;;;;5088539;28;20031;-69
2022/06/24 03:47:10;;;;;;;9.27;2.30;;;;;;;;;;5086625;28;20027;-68
2022/06/24 03:49:56;;;;;;;6.35;2.70;;;;;;;;;;5086922;28;20062;-69
2022/06/24 03:52:42;;;;;;;7.70;2.55;;;;;;;;;;5089432;28;20031;-69
2022/06/24 03:55:27;;;;;;;7.95;2.97;;;;;;;;;;5088370;28;20501;-69
2022/06/24 03:58:13;;;;;;;7.35;2.60;;;;;;;;;;5090163;28;20024;-68
2022/06/24 04:01:01;;;;;;;6.45;2.38;;;;;;;;;;5082541;28;20032;-61
2022/06/24 04:03:47;;;;;;;7.73;3.17;;;;;;;;;;5075425;28;20032;-64
2022/06/24 04:06:33;;;;;;;6.82;2.70;;;;;;;;;;5083720;28;20111;-63
2022/06/24 04:09:18;;;;;;;6.55;2.63;;;;;;;;;;5090768;28;20028;-64
2022/06/24 04:12:04;;;;;;;8.80;2.60;;;;;;;;;;5076301;28;20408;-65
2022/06/24 04:17:54;;;;;;;4.18;2.17;;;;;;;;;;5084690;28;20045;-70
2022/06/24 04:20:39;;;;;;;7.20;2.53;;;;;;;;;;5087384;28;20028;-69
2022/06/24 04:23:25;;;;;;;6.03;2.72;;;;;;;;;;5088063;28;20434;-68
2022/06/24 04:26:11;;;;;;;9.70;2.83;;;;;;;;;;5089945;28;20023;-66
2022/06/24 04:28:56;;;;;;;10.27;2.90;;;;;;;;;;5081199;28;20036;-65
2022/06/24 04:31:42;;;;;;;9.02;2.20;;;;;;;;;;5087080;28;20020;-67
2022/06/24 04:34:28;;;;;;;11.40;3.45;;;;;;;;;;5073327;28;20031;-65
2022/06/24 04:37:13;;;;;;;12.40;3.20;;;;;;;;;;5087995;28;20490;-66
2022/06/24 04:39:59;;;;;;;10.63;3.88;;;;;;;;;;5088418;28;20024;-67
2022/06/24 04:42:45;;;;;;;7.07;2.80;;;;;;;;;;5078885;28;20466;-68
2022/06/24 04:45:31;;;;;;;12.40;3.42;;;;;;;;;;5094278;28;20035;-67
2022/06/24 04:48:17;;;;;;;13.57;5.05;;;;;;;;;;5067726;28;20089;-66
2022/06/24 04:51:03;;;;;;;12.05;3.42;;;;;;;;;;5089844;28;20028;-66
2022/06/24 04:53:49;;;;;;;7.60;3.05;;;;;;;;;;5090431;28;20081;-60
2022/06/24 04:56:34;;;;;;;9.88;3.35;;;;;;;;;;5090093;28;20395;-68
2022/06/24 04:59:20;;;;;;;6.60;2.70;;;;;;;;;;5093456;28;20043;-63
2022/06/24 05:02:05;;;;;;;7.28;2.83;;;;;;;;;;5093166;28;20027;-63
2022/06/24 05:04:51;;;;;;;10.18;3.45;;;;;;;;;;5088798;28;20476;-62
2022/06/24 05:07:37;;;;;;;6.38;2.97;;;;;;;;;;5087975;28;20592;-65
2022/06/24 05:10:22;;;;;;;9.40;3.78;;;;;;;;;;5073407;28;20035;-63
2022/06/24 05:13:09;;;;;;;5.40;2.47;;;;;;;;;;5090809;28;20422;-64
2022/06/24 05:15:55;;;;;;;13.43;3.40;;;;;;;;;;5093418;28;20028;-64
2022/06/24 05:18:40;;;;;;;9.38;2.63;;;;;;;;;;5091872;28;20543;-68
2022/06/24 05:21:26;;;;;;;10.90;3.17;;;;;;;;;;5086093;28;20040;-66
2022/06/24 05:24:11;;;;;;;7.00;2.90;;;;;;;;;;5088065;28;20024;-66
2022/06/24 05:26:57;;;;;;;5.80;2.53;;;;;;;;;;5094504;28;20031;-67
2022/06/24 05:29:43;;;;;;;5.53;2.53;;;;;;;;;;5091460;28;20426;-64
2022/06/24 05:32:28;;;;;;;10.93;2.80;;;;;;;;;;5078733;28;20052;-71
2022/06/24 05:35:14;;;;;;;7.95;2.65;;;;;;;;;;5092875;28;20036;-61
2022/06/24 05:37:59;;;;;;;9.40;3.00;;;;;;;;;;5090917;28;20020;-61
2022/06/24 05:40:45;;;;;;;10.73;3.53;;;;;;;;;;5090665;28;20032;-61
2022/06/24 05:43:31;;;;;;;8.68;2.67;;;;;;;;;;5088643;28;20032;-61
2022/06/24 05:46:16;;;;;;;8.95;2.97;;;;;;;;;;5091745;28;20459;-60
2022/06/24 05:49:02;;;;;;;6.40;3.22;;;;;;;;;;5080621;28;20028;-65
2022/06/24 05:51:47;;;;;;;10.27;3.42;;;;;;;;;;5089874;28;20110;-64
2022/06/24 05:57:37;;;;;;;9.68;3.20;;;;;;;;;;5085700;28;20020;-69
2022/06/24 06:00:23;;;;;;;12.23;3.33;;;;;;;;;;5088525;28;20029;-67
2022/06/24 06:03:08;;;;;;;7.82;2.85;;;;;;;;;;5084623;28;20502;-70
2022/06/24 06:05:54;;;;;;;9.02;2.88;;;;;;;;;;5089792;28;20043;-68
2022/06/24 06:08:39;;;;;;;10.50;3.45;;;;;;;;;;5087045;28;20355;-59
2022/06/24 06:11:25;;;;;;;9.48;3.08;;;;;;;;;;5087462;28;20031;-70
2022/06/24 06:14:11;;;;;;;17.92;3.53;;;;;;;;;;5089881;28;20107;-69
2022/06/24 06:16:56;;;;;;;11.02;3.58;;;;;;;;;;5088934;28;20480;-70
2022/06/24 06:19:42;;;;;;;9.88;3.03;;;;;;;;;;5091796;28;20051;-70
2022/06/24 06:22:27;;;;;;;8.43;2.97;;;;;;;;;;5089819;28;20024;-70
2022/06/24 06:25:15;;;;;;;10.73;2.67;;;;;;;;;;5090766;28;20047;-70
2022/06/24 06:28:04;;;;;;;9.35;3.20;;;;;;;;;;5089742;28;20024;-62
2022/06/24 06:30:49;;;;;;;6.35;2.90;;;;;;;;;;5085883;28;20123;-69
2022/06/24 06:33:35;;;;;;;7.68;2.22;;;;;;;;;;5088695;28;20077;-68
2022/06/24 06:36:20;;;;;;;9.45;3.10;;;;;;;;;;5089094;28;20415;-68
2022/06/24 06:39:06;;;;;;;9.82;2.90;;;;;;;;;;5090402;28;20031;-70
2022/06/24 06:41:52;;;;;;;7.72;2.38;;;;;;;;;;5085755;28;20045;-70
2022/06/24 06:44:37;;;;;;;8.57;2.35;;;;;;;;;;5085107;28;20085;-69
2022/06/24 06:47:23;;;;;;;7.30;2.50;;;;;;;;;;5075952;28;20149;-69
2022/06/24 06:50:09;;;;;;;8.65;3.22;;;;;;;;;;5089760;28;20463;-72
2022/06/24 06:52:55;;;;;;;8.13;2.30;;;;;;;;;;5071153;28;20020;-72
2022/06/24 06:55:40;;;;;;;6.25;2.25;;;;;;;;;;5089246;28;20020;-70
2022/06/24 06:58:26;;;;;;;6.65;2.42;;;;;;;;;;5079384;28;20466;-71
2022/06/24 07:01:11;;;;;;;8.45;3.42;;;;;;;;;;5073097;28;20182;-70
2022/06/24 07:03:57;;;;;;;9.57;2.88;;;;;;;;;;5090059;28;20055;-66
2022/06/24 07:06:43;;;;;;;8.40;2.90;;;;;;;;;;5089909;28;20028;-61
2022/06/24 07:09:28;;;;;;;9.95;2.70;;;;;;;;;;5070653;28;20025;-59
2022/06/24 07:12:14;;;;;;;10.40;2.30;;;;;;;;;;5072004;28;20032;-60
2022/06/24 07:15:00;;;;;;;8.82;2.70;;;;;;;;;;5081516;28;20024;-61
2022/06/24 07:17:45;;;;;;;5.78;2.25;;;;;;;;;;5090627;28;20028;-59
2022/06/24 07:20:32;;;;;;;6.57;2.25;;;;;;;;;;5074618;28;20042;-62
2022/06/24 07:23:17;;;;;;;6.00;2.17;;;;;;;;;;5088033;28;20028;-69
2022/06/24 07:26:03;;;;;;;7.35;2.58;;;;;;;;;;5084713;28;20108;-67
2022/06/24 07:28:48;;;;;;;6.25;2.38;;;;;;;;;;5086163;28;20378;-63
2022/06/24 07:31:35;;;;;;;4.68;2.42;;;;;;;;;;5078559;28;20032;-65
2022/06/24 07:34:21;;;;;;;7.95;2.70;;;;;;;;;;5090189;28;20420;-64
2022/06/24 07:37:06;;;;;;;8.85;2.65;;;;;;;;;;5080598;28;20119;-64
2022/06/24 07:39:52;;;;;;;5.72;2.40;;;;;;;;;;5089490;28;20036;-69
2022/06/24 07:42:37;;;;;;;6.57;2.38;;;;;;;;;;5076635;28;20113;-68
2022/06/24 07:45:23;;;;;;;6.25;2.40;;;;;;;;;;5086334;28;20102;-69
2022/06/24 07:48:09;;;;;;;5.72;2.20;;;;;;;;;;5075443;28;20047;-70
2022/06/24 07:50:54;;;;;;;7.22;2.33;;;;;;;;;;5082559;28;20027;-67
2022/06/24 07:53:44;;;;;;;4.55;2.15;;;;;;;;;;5072625;28;20285;-67
2022/06/24 07:59:35;;;;;;;5.50;2.30;;;;;;;;;;5076914;28;20051;-66
2022/06/24 08:02:20;;;;;;;6.38;2.90;;;;;;;;;;5086270;28;20459;-61
2022/06/24 08:05:06;;;;;;;6.72;1.83;;;;;;;;;;5083268;28;20032;-61
2022/06/24 08:07:51;;;;;;;6.40;1.85;;;;;;;;;;5072634;28;20036;-61
2022/06/24 08:10:37;;;;;;;5.35;1.80;;;;;;;;;;5087967;28;20031;-63
2022/06/24 08:13:23;;;;;;;6.10;2.10;;;;;;;;;;5078000;28;20204;-61
2022/06/24 08:16:08;;;;;;;6.65;2.15;;;;;;;;;;5089340;28;20039;-68
2022/06/24 08:18:54;;;;;;;4.32;2.17;;;;;;;;;;5094114;28;20035;-70
2022/06/24 08:21:40;;;;;;;6.78;2.50;;;;;;;;;;5092285;28;20032;-69
2022/06/24 08:24:26;;;;;;;5.75;1.98;;;;;;;;;;5092085;28;20107;-70
2022/06/24 08:27:12;;;;;;;4.63;1.70;;;;;;;;;;5073189;28;20027;-68
2022/06/24 08:29:58;;;;;;;7.03;1.80;;;;;;;;;;5078536;28;20408;-71
2022/06/24 08:32:43;;;;;;;5.57;2.30;;;;;;;;;;5093922;28;20490;-71
2022/06/24 08:35:29;;;;;;;5.03;2.00;;;;;;;;;;5093244;28;20647;-60
2022/06/24 08:38:16;;;;;;;4.80;1.80;;;;;;;;;;5092045;28;20383;-61
2022/06/24 08:41:02;;;;;;;3.47;1.80;;;;;;;;;;5092471;28;20062;-65
2022/06/24 08:43:49;;;;;;;5.80;2.20;;;;;;;;;;5077128;28;20051;-63
2022/06/24 08:46:38;;;;;;;4.57;2.03;;;;;;;;;;5091139;28;20020;-62
2022/06/24 08:49:24;;;;;;;;;;;;;;;;;;5091655;28;20378;-64
2022/06/24 08:52:11;;;;;;;5.82;2.03;;;;;;;;;;5093113;28;19919;-63
2022/06/24 08:54:57;;;;;;;2.75;1.63;;;;;;;;;;5083004;28;20510;-67
2022/06/24 08:57:43;;;;;;;4.95;1.73;;;;;;;;;;5084520;28;20028;-61
2022/06/24 09:00:28;;;;;;;3.83;1.70;;;;;;;;;;5076486;28;20079;-62
2022/06/24 09:03:14;;;;;;;2.90;1.60;;;;;;;;;;5082610;28;20107;-63
2022/06/24 09:06:09;;;;;;;2.97;1.50;;;;;;;;;;5090852;28;20462;-61
2022/06/24 09:08:56;;;;;;;10.70;1.85;;;;;;;;;;5057070;28;20089;-64
2022/06/24 09:11:42;;;;;;;4.50;1.80;;;;;;;;;;5081544;28;20062;-67
2022/06/24 09:14:44;;;;;;;3.05;1.67;;;;;;;;;;5085822;28;20402;-68
2022/06/24 09:17:30;;;;;;;4.00;1.48;;;;;;;;;;5093330;28;20027;-75
2022/06/24 09:20:21;;;;;;;3.67;2.15;;;;;;;;;;5089128;28;20047;-75
2022/06/24 09:23:08;;;;;;;4.22;1.85;;;;;;;;;;5092585;28;20517;-70
2022/06/24 09:26:00;;;;;;;2.95;1.52;;;;;;;;;;5088393;28;20028;-72
2022/06/24 09:28:47;;;;;;;5.03;1.60;;;;;;;;;;5088407;28;20054;-71
2022/06/24 09:31:34;;;;;;;4.85;1.55;;;;;;;;;;5061652;28;20031;-66
2022/06/24 09:34:20;;;;;;;3.15;1.60;;;;;;;;;;5077326;28;20099;-65
2022/06/24 09:37:07;;;;;;;4.93;1.38;;;;;;;;;;5074514;28;20111;-64
2022/06/24 09:39:52;;;;;;;5.53;1.58;;;;;;;;;;5085361;28;20074;-62
2022/06/24 09:42:38;;;;;;;5.70;2.22;;;;;;;;;;5091680;28;20051;-64
2022/06/24 09:45:25;;;;;;;4.88;1.73;;;;;;;;;;5084785;28;20103;-64
2022/06/24 09:48:11;;;;;;;2.38;1.48;;;;;;;;;;5063499;28;20058;-72
2022/06/24 09:50:58;;;;;;;4.90;1.58;;;;;;;;;;5072714;28;20028;-70
2022/06/24 09:53:45;;;;;;;5.45;1.65;;;;;;;;;;5087765;28;20024;-72
2022/06/24 09:56:31;;;;;;;3.55;1.48;;;;;;;;;;5080173;28;20502;-75
2022/06/24 10:02:22;;;;;;;4.43;1.50;;;;;;;;;;5088960;28;20486;-68
2022/06/24 10:05:09;;;;;;;4.68;1.50;;;;;;;;;;5090734;28;20524;-68
2022/06/24 10:07:55;;;;;;;3.45;1.77;;;;;;;;;;5086658;28;20024;-61
2022/06/24 10:10:47;;;;;;;3.45;1.80;;;;;;;;;;5086084;28;20071;-61
2022/06/24 10:13:33;;;;;;;1.73;1.52;;;;;;;;;;5091020;28;20032;-63
2022/06/24 10:16:20;;;;;;;3.38;1.60;;;;;;;;;;5082159;28;20043;-62
2022/06/24 10:19:06;;;;;;;4.22;1.55;;;;;;;;;;5088713;28;20185;-62
2022/06/24 10:21:52;;;;;;;4.60;1.83;;;;;;;;;;5075971;28;20032;-62
2022/06/24 10:24:44;;;;;;;3.33;1.58;;;;;;;;;;5092613;28;20028;-62
2022/06/24 10:27:48;;;;;;;3.88;1.80;;;;;;;;;;5084661;28;20035;-74
2022/06/24 10:30:39;;;;;;;2.83;1.50;;;;;;;;;;5076373;28;20048;-69
2022/06/24 10:33:26;;;;;;;3.67;1.42;;;;;;;;;;5075658;28;20115;-69
2022/06/24 10:36:12;;;;;;;3.80;1.63;;;;;;;;;;5077153;28;20043;-67
2022/06/24 10:39:11;;;;;;;4.05;1.88;;;;;;;;;;5056953;28;20448;-70
2022/06/24 10:42:07;;;;;;;4.18;1.50;;;;;;;;;;5077597;28;20107;-69
2022/06/24 10:44:55;;;;;;;5.57;2.05;;;;;;;;;;5084414;28;20028;-61
2022/06/24 10:47:41;;;;;;;4.20;1.50;;;;;;;;;;5076989;28;20032;-64
2022/06/24 10:50:27;;;;;;;3.67;1.92;;;;;;;;;;5072670;28;20025;-64
2022/06/24 10:53:12;;;;;;;7.60;2.47;;;;;;;;;;5081680;28;20028;-65
2022/06/24 10:55:58;;;;;;;4.05;2.53;;;;;;;;;;5088562;28;20028;-65
2022/06/24 10:58:43;;;;;;;6.13;1.95;;;;;;;;;;5085539;28;20378;-65
2022/06/24 11:01:29;;;;;;;3.85;1.98;;;;;;;;;;5089006;28;20133;-65
2022/06/24 11:04:21;;;;;;;5.57;2.58;;;;;;;;;;5089968;28;20176;-62
2022/06/24 11:07:08;;;;;;;5.97;2.75;;;;;;;;;;5089804;28;20032;-70
2022/06/24 11:09:53;;;;;;;4.68;2.20;;;;;;;;;;5085836;28;20081;-75
2022/06/24 11:12:39;;;;;;;5.70;2.40;;;;;;;;;;5089303;28;20487;-75
2022/06/24 11:15:36;;;;;;;6.15;1.98;;;;;;;;;;5088696;28;20025;-74
2022/06/24 11:18:24;;;;;;;8.38;2.28;;;;;;;;;;5084457;28;20022;-74
2022/06/24 11:21:09;;;;;;;7.80;2.15;;;;;;;;;;5088195;28;20036;-62
2022/06/24 11:23:59;;;;;;;6.10;2.28;;;;;;;;;;5090179;28;20763;-64
2022/06/24 11:27:03;;;;;;;6.10;2.35;;;;;;;;;;5070527;28;20032;-62
2022/06/24 11:29:50;;;;;;;6.25;2.70;;;;;;;;;;5075676;28;20048;-62
2022/06/24 11:32:52;;;;;;;9.88;2.53;;;;;;;;;;5075921;28;20031;-64
2022/06/24 11:35:37;;;;;;;4.47;2.28;;;;;;;;;;5089626;28;20031;-61
2022/06/24 11:38:23;;;;;;;6.32;2.42;;;;;;;;;;5090448;28;20028;-62
2022/06/24 11:41:08;;;;;;;6.95;2.63;;;;;;;;;;5089973;28;20039;-65
2022/06/24 11:43:54;;;;;;;4.22;2.20;;;;;;;;;;5075415;28;20043;-70
2022/06/24 11:46:47;;;;;;;4.53;2.72;;;;;;;;;;5087565;28;20039;-68
2022/06/24 11:49:33;;;;;;;4.65;2.40;;;;;;;;;;5087768;28;20020;-70
2022/06/24 11:52:19;;;;;;;4.85;2.17;;;;;;;;;;5069359;28;20474;-69
2022/06/24 11:55:21;;;;;;;6.80;2.30;;;;;;;;;;5086086;28;20078;-67
2022/06/24 11:58:07;;;;;;;5.55;1.80;;;;;;;;;;5085308;28;20444;-61
2022/06/24 12:00:53;;;;;;;7.38;1.77;;;;;;;;;;5082025;28;20379;-70
2022/06/24 12:03:39;;;;;;;5.75;1.83;;;;;;;;;;5085198;28;20054;-71
2022/06/24 12:06:26;;;;;;;4.65;2.00;;;;;;;;;;5086216;28;20470;-70
2022/06/24 12:09:12;;;;;;;7.43;2.10;;;;;;;;;;5087877;28;20032;-70
2022/06/24 12:12:07;;;;;;;4.50;1.92;;;;;;;;;;5083533;28;20425;-70
2022/06/24 12:14:56;;;;;;;9.20;2.90;;;;;;;;;;5085647;28;20032;-70
2022/06/24 12:17:49;;;;;;;5.30;2.40;;;;;;;;;;5074296;28;20024;-65
2022/06/24 12:20:35;;;;;;;6.68;2.22;;;;;;;;;;5089637;28;20093;-64
2022/06/24 12:23:21;;;;;;;3.45;1.50;;;;;;;;;;5082882;28;20043;-61
2022/06/24 12:26:17;;;;;;;6.00;1.80;;;;;;;;;;5087379;28;20400;-62
2022/06/24 12:29:04;;;;;;;7.25;1.85;;;;;;;;;;5089179;28;20039;-62
2022/06/24 12:31:50;;;;;;;3.28;1.77;;;;;;;;;;5089388;28;20035;-62
2022/06/24 12:34:37;;;;;;;3.72;2.38;;;;;;;;;;5083950;28;20041;-62
2022/06/24 12:37:22;;;;;;;4.95;2.20;;;;;;;;;;5084473;28;20169;-62
2022/06/24 12:40:20;;;;;;;4.03;1.30;;;;;;;;;;5091179;28;20486;-62
2022/06/24 12:43:07;;;;;;;5.95;2.40;;;;;;;;;;5090504;28;20491;-63
2022/06/24 12:45:52;;;;;;;3.63;2.05;;;;;;;;;;5088328;28;20544;-64
2022/06/24 12:51:43;;;;;;;5.53;2.50;;;;;;;;;;5067073;28;20031;-62
2022/06/24 12:54:28;;;;;;;9.27;2.58;;;;;;;;;;5079425;28;20027;-60
2022/06/24 12:57:14;;;;;;;5.13;1.98;;;;;;;;;;5076354;28;20024;-64
2022/06/24 13:00:00;;;;;;;8.50;2.90;;;;;;;;;;5085027;28;20107;-65
2022/06/24 13:02:46;;;;;;;8.48;2.58;;;;;;;;;;5091324;28;20024;-65
2022/06/24 13:05:32;;;;;;;9.55;3.45;;;;;;;;;;5092383;28;20533;-66
2022/06/24 13:08:20;;;;;;;8.85;3.10;;;;;;;;;;5078364;28;20032;-65
2022/06/24 13:11:05;;;;;;;9.40;3.00;;;;;;;;;;5079257;28;20040;-60
2022/06/24 13:13:51;;;;;;;9.75;3.55;;;;;;;;;;5091574;28;20028;-59
2022/06/24 13:16:37;;;;;;;11.25;3.67;;;;;;;;;;5088598;28;20367;-59
2022/06/24 13:19:22;;;;;;;9.65;2.88;;;;;;;;;;5084795;28;20032;-62
2022/06/24 13:22:08;;;;;;;8.18;2.95;;;;;;;;;;5075005;28;20048;-60
2022/06/24 13:24:53;;;;;;;8.70;2.90;;;;;;;;;;5088479;28;20470;-62
2022/06/24 13:27:39;;;;;;;6.38;2.80;;;;;;;;;;5088251;28;20116;-61
2022/06/24 13:30:25;;;;;;;5.00;3.05;;;;;;;;;;5089855;28;20432;-58
2022/06/24 13:33:11;;;;;;;6.57;2.50;;;;;;;;;;5090372;28;20428;-73
2022/06/24 13:35:56;;;;;;;9.23;2.97;;;;;;;;;;5077454;28;20036;-73
2022/06/24 13:38:42;;;;;;;5.03;2.80;;;;;;;;;;5080629;28;20339;-73
2022/06/24 13:41:28;;;;;;;5.03;2.33;;;;;;;;;;5075395;28;20063;-76
2022/06/24 13:44:13;;;;;;;5.75;2.63;;;;;;;;;;5069013;28;20028;-73
2022/06/24 13:46:59;;;;;;;9.60;3.00;;;;;;;;;;5089767;28;20028;-69
2022/06/24 13:49:45;;;;;;;5.10;2.25;;;;;;;;;;5086290;28;20019;-60
2022/06/24 13:52:31;;;;;;;4.93;2.58;;;;;;;;;;5091031;28;20043;-65
2022/06/24 13:55:16;;;;;;;3.80;2.55;;;;;;;;;;5086077;28;20070;-61
2022/06/24 13:58:02;;;;;;;5.22;2.63;;;;;;;;;;5058986;28;20478;-64
2022/06/24 14:00:47;;;;;;;6.75;3.08;;;;;;;;;;5088357;28;20121;-69
2022/06/24 14:03:33;;;;;;;4.63;2.17;;;;;;;;;;5080292;28;20467;-64
2022/06/24 14:06:19;;;;;;;5.78;2.58;;;;;;;;;;5082399;28;20378;-61
2022/06/24 14:09:05;;;;;;;5.07;2.28;;;;;;;;;;5089381;28;20093;-72
2022/06/24 14:11:50;;;;;;;6.50;2.60;;;;;;;;;;5091444;28;20028;-70
2022/06/24 14:14:37;;;;;;;6.90;2.42;;;;;;;;;;5084300;28;20035;-68
2022/06/24 14:17:23;;;;;;;6.13;2.65;;;;;;;;;;5091063;28;20032;-69
2022/06/24 14:20:08;;;;;;;5.25;2.58;;;;;;;;;;5088084;28;20136;-68
2022/06/24 14:25:58;;;;;;;7.22;2.42;;;;;;;;;;5088701;28;20055;-65
2022/06/24 14:28:44;;;;;;;5.25;2.28;;;;;;;;;;5084271;28;20019;-60
2022/06/24 14:31:30;;;;;;;6.40;2.78;;;;;;;;;;5091834;28;20020;-62
2022/06/24 14:34:15;;;;;;;7.97;3.10;;;;;;;;;;5085101;28;20377;-61
2022/06/24 14:37:01;;;;;;;6.05;3.20;;;;;;;;;;5091200;28;20107;-64
2022/06/24 14:42:51;;;;;;;8.65;2.90;;;;;;;;;;5091636;28;20036;-62
2022/06/24 14:45:36;;;;;;;9.68;2.75;;;;;;;;;;5087551;28;20416;-67
2022/06/24 14:48:22;;;;;;;5.80;2.60;;;;;;;;;;5086647;28;20070;-67
2022/06/24 14:51:08;;;;;;;8.38;2.45;;;;;;;;;;5081468;28;20028;-63
2022/06/24 14:53:55;;;;;;;4.72;2.30;;;;;;;;;;5087627;28;20631;-60
2022/06/24 14:56:41;;;;;;;4.57;2.38;;;;;;;;;;5085939;28;20523;-62
2022/06/24 14:59:27;;;;;;;5.25;2.83;;;;;;;;;;5082190;28;20107;-66
2022/06/24 15:02:12;;;;;;;5.38;3.03;;;;;;;;;;5089071;28;20394;-62
2022/06/24 15:04:58;;;;;;;7.72;2.38;;;;;;;;;;5091094;28;20101;-62
2022/06/24 15:07:43;;;;;;;5.93;2.20;;;;;;;;;;5083327;28;20036;-64
2022/06/24 15:10:29;;;;;;;5.20;2.70;;;;;;;;;;5076286;28;20062;-63
2022/06/24 15:13:15;;;;;;;6.25;2.83;;;;;;;;;;5075855;28;20031;-64
2022/06/24 15:16:00;;;;;;;4.88;2.17;;;;;;;;;;5063643;28;20016;-65
2022/06/24 15:18:46;;;;;;;6.53;1.92;;;;;;;;;;5089727;28;20050;-65
2022/06/24 15:21:32;;;;;;;3.40;1.70;;;;;;;;;;5084990;28;20085;-66
2022/06/24 15:24:17;;;;;;;8.25;2.65;;;;;;;;;;5085669;28;20124;-65
2022/06/24 15:27:03;;;;;;;3.67;1.98;;;;;;;;;;5070758;28;20024;-62
2022/06/24 15:29:49;;;;;;;4.32;2.30;;;;;;;;;;5090835;28;20024;-63
2022/06/24 15:32:35;;;;;;;5.03;2.17;;;;;;;;;;5084908;28;20421;-68
2022/06/24 15:35:20;;;;;;;4.78;2.10;;;;;;;;;;5088240;28;20031;-68
2022/06/24 15:38:06;;;;;;;5.97;2.03;;;;;;;;;;5070767;28;20072;-64
2022/06/24 15:40:51;;;;;;;3.70;2.03;;;;;;;;;;5053955;28;20031;-67
2022/06/24 15:43:37;;;;;;;4.78;2.10;;;;;;;;;;5083832;28;20035;-70
2022/06/24 15:46:23;;;;;;;6.75;2.42;;;;;;;;;;5077941;28;20099;-68
2022/06/24 15:49:08;;;;;;;6.32;2.38;;;;;;;;;;5076504;28;20110;-67
2022/06/24 15:51:54;;;;;;;5.65;3.22;;;;;;;;;;5075257;28;20032;-68
2022/06/24 15:54:39;;;;;;;4.80;2.80;;;;;;;;;;5089074;28;20020;-68
2022/06/24 15:57:25;;;;;;;4.05;2.45;;;;;;;;;;5089317;28;20047;-71
2022/06/24 16:00:11;;;;;;;3.92;2.30;;;;;;;;;;5074331;28;20517;-68
2022/06/24 16:02:57;;;;;;;4.95;2.50;;;;;;;;;;5080203;28;20103;-69
2022/06/24 16:05:42;;;;;;;4.13;2.13;;;;;;;;;;5090187;28;20031;-68
2022/06/24 16:08:28;;;;;;;4.13;2.55;;;;;;;;;;5089430;28;20039;-68
2022/06/24 16:11:14;;;;;;;5.43;2.28;;;;;;;;;;5077342;28;20327;-68
2022/06/24 16:13:59;;;;;;;6.07;2.40;;;;;;;;;;5088143;28;20035;-68
2022/06/24 16:16:45;;;;;;;6.75;2.75;;;;;;;;;;5092303;28;20047;-70
2022/06/24 16:19:31;;;;;;;5.10;2.33;;;;;;;;;;5076539;28;20038;-64
2022/06/24 16:22:17;;;;;;;5.80;2.80;;;;;;;;;;5089789;28;20395;-62
2022/06/24 16:31:22;;;;;;;3.63;2.30;;;;;;;;;;5088284;28;20036;-63
2022/06/24 16:34:08;;;;;;;3.55;2.22;;;;;;;;;;5090816;28;20474;-71
2022/06/24 16:36:53;;;;;;;4.10;2.63;;;;;;;;;;5094145;28;20488;-66
2022/06/24 16:39:39;;;;;;;6.43;2.45;;;;;;;;;;5093311;28;20474;-66
2022/06/24 16:42:25;;;;;;;5.70;2.67;;;;;;;;;;5094698;28;20493;-66
2022/06/24 16:45:10;;;;;;;6.88;2.50;;;;;;;;;;5094645;28;20035;-67
2022/06/24 16:47:56;;;;;;;4.32;2.20;;;;;;;;;;5094249;28;20117;-68
2022/06/24 16:50:41;;;;;;;5.97;2.63;;;;;;;;;;5079355;28;20108;-67
2022/06/24 16:53:31;;;;;;;4.00;2.35;;;;;;;;;;5090933;28;20028;-68
2022/06/24 16:56:17;;;;;;;7.93;2.97;;;;;;;;;;5094352;28;20073;-71
2022/06/24 16:59:02;;;;;;;6.38;2.20;;;;;;;;;;5091068;28;20039;-71
2022/06/24 17:01:48;;;;;;;4.05;2.17;;;;;;;;;;5087608;28;20066;-71
2022/06/24 17:04:33;;;;;;;4.43;2.10;;;;;;;;;;5094143;28;20370;-72
2022/06/24 17:07:19;;;;;;;5.05;2.13;;;;;;;;;;5091033;28;20027;-70
2022/06/24 17:10:05;;;;;;;4.22;2.20;;;;;;;;;;5093545;28;20534;-65